Time;durP1;ratioP1;P1;durP2;ratioP2;P2;SDS_P1;SDS_P2;PMS_P1;PMS_P2;Temp;Humidity;BMP_temperature;BMP_pressure;BME280_temperature;BME280_humidity;BME280_pressure;Samples;Min_cycle;Max_cycle;Signal;HPM_P1;HPM_P2
2022/07/06 00:00:10;197108.00;0.66;340.95;63902.00;0.21;111.22;;;;;22.70;1.00;;;;;;2272244;61;1327;-84
2022/07/06 00:02:37;168575.00;0.56;291.81;66959.00;0.22;116.51;;;;;22.70;1.00;;;;;;2272021;61;1179;-85
2022/07/06 00:05:05;186089.00;0.62;321.97;77838.00;0.26;135.30;;;;;22.70;1.00;;;;;;2272230;61;1110;-83
2022/07/06 00:07:33;166717.00;0.56;288.61;72107.00;0.24;125.40;;;;;22.90;1.00;;;;;;2272006;61;1096;-85
2022/07/06 00:10:00;175602.00;0.59;303.92;67699.00;0.23;117.78;;;;;22.90;1.00;;;;;;2272181;61;1246;-86
2022/07/06 00:12:27;183967.00;0.61;318.32;74063.00;0.25;128.78;;;;;22.40;1.00;;;;;;2272605;61;1122;-84
2022/07/06 00:14:53;163446.00;0.54;282.98;75115.00;0.25;130.60;;;;;22.60;1.00;;;;;;2272584;61;1705;-81
2022/07/06 00:17:21;351766.00;1.17;606.90;80838.00;0.27;140.48;;;;;22.60;1.00;;;;;;2272493;61;2002;-84
2022/07/06 00:19:47;672371.00;2.24;1159.36;111804.00;0.37;193.94;;;;;22.50;1.00;;;;;;2272518;61;1266;-83
2022/07/06 00:22:14;168306.00;0.56;291.35;72880.00;0.24;126.74;;;;;22.30;1.00;;;;;;2272135;61;1104;-87
2022/07/06 00:24:42;209968.00;0.70;363.08;67949.00;0.23;118.22;;;;;22.10;1.00;;;;;;2271666;61;1136;-86
2022/07/06 00:27:09;291630.00;0.97;503.53;73367.00;0.24;127.58;;;;;22.10;1.00;;;;;;2271927;61;1122;-86
2022/07/06 00:29:36;161387.00;0.54;279.43;55005.00;0.18;95.84;;;;;22.10;1.00;;;;;;2271388;61;1364;-85
2022/07/06 00:32:04;182843.00;0.61;316.39;78093.00;0.26;135.74;;;;;22.30;1.00;;;;;;2272054;61;1150;-86
2022/07/06 00:34:31;169502.00;0.57;293.41;70685.00;0.24;122.94;;;;;22.30;1.00;;;;;;2271764;61;1178;-82
2022/07/06 00:36:57;279030.00;0.93;481.87;67612.00;0.23;117.63;;;;;22.50;1.00;;;;;;2271997;61;2002;-85
2022/07/06 00:39:28;173485.00;0.58;300.27;75669.00;0.25;131.56;;;;;22.40;1.00;;;;;;2271487;61;1368;-85
2022/07/06 00:41:57;168320.00;0.56;291.37;69021.00;0.23;120.07;;;;;22.40;1.00;;;;;;2271634;61;1152;-86
2022/07/06 00:44:24;165769.00;0.55;286.98;70401.00;0.23;122.45;;;;;22.20;1.00;;;;;;2272044;61;1098;-85
2022/07/06 01:07:06;0.00;0.00;0.62;0.00;0.00;0.62;;;;;21.60;1.00;;;;;;2271621;61;1118;-87
2022/07/06 01:09:33;168697.00;0.56;292.02;74277.00;0.25;129.15;;;;;21.40;1.00;;;;;;2271682;61;1376;-85
2022/07/06 01:12:00;167720.00;0.56;290.34;78349.00;0.26;136.19;;;;;21.20;1.00;;;;;;2271729;61;1114;-84
2022/07/06 01:14:27;709387.00;2.36;1223.52;210616.00;0.70;364.20;;;;;21.40;1.00;;;;;;2271375;61;1131;-85
2022/07/06 01:16:54;165483.00;0.55;286.49;70808.00;0.24;123.16;;;;;21.50;1.00;;;;;;2271743;61;1996;-84
2022/07/06 01:19:21;169919.00;0.57;294.13;68229.00;0.23;118.70;;;;;21.60;1.00;;;;;;2272068;61;1387;-85
2022/07/06 01:21:49;169093.00;0.56;292.70;82095.00;0.27;142.66;;;;;21.50;1.00;;;;;;2271696;61;2177;-86
2022/07/06 01:24:16;0.00;0.00;0.62;0.00;0.00;0.62;;;;;21.40;1.00;;;;;;2271392;61;1203;-85
2022/07/06 01:26:44;668.00;0.00;1.78;0.00;0.00;0.62;;;;;21.30;1.00;;;;;;2271539;61;1165;-86
2022/07/06 01:29:11;129091.00;0.43;223.76;0.00;0.00;0.62;;;;;21.70;1.00;;;;;;2271776;61;1284;-85
2022/07/06 01:31:47;0.00;0.00;0.62;0.00;0.00;0.62;;;;;21.70;1.00;;;;;;2271689;61;1106;-85
2022/07/06 01:34:14;309240.00;1.03;533.80;87406.00;0.29;151.83;;;;;21.70;1.00;;;;;;2272116;61;1120;-82
2022/07/06 01:36:41;169452.00;0.56;293.32;67866.00;0.23;118.07;;;;;21.50;1.00;;;;;;2271488;61;1909;-85
2022/07/06 01:39:11;168814.00;0.56;292.22;71991.00;0.24;125.20;;;;;21.80;1.00;;;;;;2271566;61;1375;-85
2022/07/06 01:41:38;192959.00;0.64;333.80;75208.00;0.25;130.76;;;;;21.60;1.00;;;;;;2271217;61;1086;-84
2022/07/06 01:44:06;288706.00;0.96;498.50;75521.00;0.25;131.30;;;;;21.70;1.00;;;;;;2271775;61;1148;-85
2022/07/06 01:46:33;234477.00;0.78;405.25;70263.00;0.23;122.21;;;;;21.70;1.00;;;;;;2271331;61;2238;-86
2022/07/06 01:49:00;166663.00;0.56;288.52;69690.00;0.23;121.22;;;;;21.70;1.00;;;;;;2271303;61;1293;-85
2022/07/06 01:51:28;172004.00;0.57;297.72;73742.00;0.25;128.23;;;;;21.50;1.00;;;;;;2271089;61;1123;-86
2022/07/06 01:53:54;165168.00;0.55;285.94;78576.00;0.26;136.58;;;;;21.60;1.00;;;;;;2270717;61;1112;-85
2022/07/06 01:56:23;200323.00;0.67;346.48;70302.00;0.23;122.28;;;;;21.80;1.00;;;;;;2271297;61;2005;-85
2022/07/06 01:58:50;175320.00;0.58;303.43;76333.00;0.25;132.70;;;;;22.10;1.00;;;;;;2271269;61;1080;-85
2022/07/06 02:01:18;264079.00;0.88;456.16;104675.00;0.35;181.64;;;;;22.20;1.00;;;;;;2270849;61;1508;-86
2022/07/06 02:03:46;448732.00;1.50;773.60;132057.00;0.44;228.88;;;;;22.20;1.00;;;;;;2271313;61;1141;-85
2022/07/06 02:06:14;169225.00;0.56;292.93;72638.00;0.24;126.32;;;;;22.30;1.00;;;;;;2271211;61;1134;-86
2022/07/06 02:08:42;407927.00;1.36;703.43;180188.00;0.60;311.81;;;;;22.10;1.00;;;;;;2271238;61;1138;-86
2022/07/06 02:11:10;170198.00;0.57;294.61;73299.00;0.24;127.46;;;;;22.00;1.00;;;;;;2271273;61;1259;-86
2022/07/06 02:13:38;172417.00;0.57;298.43;65081.00;0.22;113.26;;;;;21.90;1.00;;;;;;2271687;61;1168;-85
2022/07/06 02:16:05;170448.00;0.57;295.04;74639.00;0.25;129.78;;;;;22.00;1.00;;;;;;2271653;61;1928;-86
2022/07/06 02:18:32;218484.00;0.73;377.74;64478.00;0.21;112.22;;;;;21.60;1.00;;;;;;2272614;61;1115;-86
2022/07/06 02:20:59;196467.00;0.65;339.84;68681.00;0.23;119.48;;;;;21.40;1.00;;;;;;2272226;61;1739;-85
2022/07/06 02:23:26;239579.00;0.80;414.03;75609.00;0.25;131.45;;;;;21.20;1.00;;;;;;2272075;61;1117;-84
2022/07/06 02:25:54;167370.00;0.56;289.74;73978.00;0.25;128.63;;;;;21.10;1.00;;;;;;2272011;61;2072;-85
2022/07/06 02:28:21;202809.00;0.68;350.76;71073.00;0.24;123.61;;;;;21.20;1.00;;;;;;2272531;61;1117;-84
2022/07/06 02:30:49;323136.00;1.08;557.69;83415.00;0.28;144.94;;;;;21.00;1.00;;;;;;2272562;61;2145;-85
2022/07/06 02:33:16;166397.00;0.55;288.06;71752.00;0.24;124.79;;;;;20.70;1.00;;;;;;2272283;61;1107;-86
2022/07/06 02:35:43;166849.00;0.56;288.84;79813.00;0.27;138.71;;;;;20.60;1.00;;;;;;2272715;61;1093;-83
2022/07/06 02:38:09;218306.00;0.73;377.43;72161.00;0.24;125.49;;;;;20.70;1.00;;;;;;2272867;61;1997;-84
2022/07/06 02:40:36;117059904.00;390.20;64975512.00;65224.00;0.22;113.51;;;;;20.70;1.00;;;;;;2272174;61;1656;-82
2022/07/06 02:43:04;163750.00;0.55;283.50;74232.00;0.25;129.07;;;;;20.60;1.00;;;;;;2272894;61;2041;-83
2022/07/06 02:45:31;205474.00;0.68;355.35;77502.00;0.26;134.72;;;;;20.80;1.00;;;;;;2272526;61;1114;-86
2022/07/06 02:47:59;168269.00;0.56;291.28;76831.00;0.26;133.56;;;;;20.90;1.00;;;;;;2271978;61;1088;-86
2022/07/06 02:50:27;361437.00;1.20;623.52;79461.00;0.26;138.11;;;;;21.00;1.00;;;;;;2271970;61;1314;-86
2022/07/06 02:52:54;197256.00;0.66;341.20;76388.00;0.25;132.80;;;;;21.10;1.00;;;;;;2271812;61;1142;-86
2022/07/06 02:55:22;168001.00;0.56;290.82;72745.00;0.24;126.50;;;;;21.30;1.00;;;;;;2271798;61;1140;-87
2022/07/06 02:57:49;166785.00;0.56;288.73;72346.00;0.24;125.81;;;;;21.50;1.00;;;;;;2272211;61;2002;-86
2022/07/06 03:00:16;254522.00;0.85;439.73;74025.00;0.25;128.72;;;;;21.50;1.00;;;;;;2272000;61;1289;-85
2022/07/06 03:02:43;168135.00;0.56;291.05;74693.00;0.25;129.87;;;;;21.60;1.00;;;;;;2272107;61;1081;-86
2022/07/06 03:05:12;180351.00;0.60;312.09;77647.00;0.26;134.97;;;;;21.30;1.00;;;;;;2271760;61;1087;-86
2022/07/06 03:07:39;170559.00;0.57;295.23;72402.00;0.24;125.91;;;;;20.60;1.00;;;;;;2271907;61;1090;-87
2022/07/06 03:10:07;228238.00;0.76;394.52;82282.00;0.27;142.98;;;;;20.80;1.00;;;;;;2271875;61;1352;-85
2022/07/06 03:12:33;165209.00;0.55;286.01;70990.00;0.24;123.47;;;;;21.00;1.00;;;;;;2271412;61;1101;-86
2022/07/06 03:15:00;333275.00;1.11;575.12;84599.00;0.28;146.98;;;;;21.30;1.00;;;;;;2272167;61;2613;-86
2022/07/06 03:17:27;348034.00;1.16;600.48;115374.00;0.38;200.10;;;;;21.00;1.00;;;;;;2272023;61;2007;-86
2022/07/06 03:19:54;227272.00;0.76;392.86;74799.00;0.25;130.05;;;;;21.00;1.00;;;;;;2271996;61;1376;-86
2022/07/06 03:22:22;202555.00;0.68;350.32;70114.00;0.23;121.96;;;;;21.10;1.00;;;;;;2271981;61;1131;-83
2022/07/06 03:24:49;213011.00;0.71;368.32;74640.00;0.25;129.78;;;;;21.20;1.00;;;;;;2272765;61;978;-83
2022/07/06 03:27:16;307017.00;1.02;529.98;67398.00;0.22;117.26;;;;;21.10;1.00;;;;;;2272558;61;1135;-84
2022/07/06 03:29:43;232383.00;0.77;401.65;75971.00;0.25;132.08;;;;;21.10;1.00;;;;;;2272664;61;1267;-83
2022/07/06 03:32:10;495475.00;1.65;854.03;195354.00;0.65;337.93;;;;;21.00;1.00;;;;;;2272399;61;1047;-86
2022/07/06 03:34:37;309454.00;1.03;534.17;93986.00;0.31;163.19;;;;;21.10;1.00;;;;;;2272611;61;1115;-82
2022/07/06 03:37:04;199833.00;0.67;345.64;81126.00;0.27;140.98;;;;;21.40;1.00;;;;;;2272640;61;1988;-83
2022/07/06 03:39:32;232097.00;0.77;401.16;67371.00;0.22;117.22;;;;;21.60;1.00;;;;;;2272616;61;1357;-82
2022/07/06 03:41:59;230033.00;0.77;397.61;66418.00;0.22;115.57;;;;;21.50;1.00;;;;;;2272639;61;1042;-83
2022/07/06 03:44:26;497740.00;1.66;857.93;95610.00;0.32;165.99;;;;;21.60;1.00;;;;;;2272572;61;1188;-85
2022/07/06 03:46:55;389500.00;1.30;671.76;101650.00;0.34;176.42;;;;;21.60;1.00;;;;;;2272631;61;1122;-82
2022/07/06 03:49:22;166294.00;0.55;287.88;71933.00;0.24;125.10;;;;;21.70;1.00;;;;;;2272584;61;1396;-83
2022/07/06 03:51:48;233328.00;0.78;403.27;70966.00;0.24;123.43;;;;;21.80;1.00;;;;;;2272605;61;1057;-84
2022/07/06 03:54:15;170130.00;0.57;294.49;74476.00;0.25;129.49;;;;;21.70;1.00;;;;;;2272540;61;999;-86
2022/07/06 03:56:44;183419.00;0.61;317.38;70835.00;0.24;123.20;;;;;21.50;1.00;;;;;;2272385;61;1993;-86
2022/07/06 03:59:10;196202.00;0.65;339.39;72958.00;0.24;126.87;;;;;21.50;1.00;;;;;;2272269;61;1272;-85
2022/07/06 04:01:37;173031.00;0.58;299.49;71057.00;0.24;123.59;;;;;21.20;1.00;;;;;;2272379;61;1110;-86
2022/07/06 04:04:04;290979.00;0.97;502.41;69430.00;0.23;120.78;;;;;20.90;1.00;;;;;;2272352;61;1114;-84
2022/07/06 04:06:31;179247.00;0.60;310.19;85640.00;0.29;148.78;;;;;20.70;1.00;;;;;;2272251;61;1171;-85
2022/07/06 04:08:58;215572.00;0.72;372.72;76029.00;0.25;132.18;;;;;20.20;1.00;;;;;;2272176;61;1322;-86
2022/07/06 04:11:25;173678.00;0.58;300.60;73111.00;0.24;127.14;;;;;20.30;1.00;;;;;;2272100;61;1125;-87
2022/07/06 04:13:54;180611.00;0.60;312.54;83743.00;0.28;145.50;;;;;20.40;1.00;;;;;;2272245;61;1144;-85
2022/07/06 04:16:21;212839.00;0.71;368.02;75290.00;0.25;130.90;;;;;20.70;1.00;;;;;;2272323;61;1140;-85
2022/07/06 04:18:48;246124.00;0.82;425.28;72490.00;0.24;126.06;;;;;20.50;1.00;;;;;;2272088;61;1928;-85
2022/07/06 04:21:15;116716.00;0.39;202.42;0.00;0.00;0.62;;;;;20.70;1.00;;;;;;2272021;61;1602;-86
2022/07/06 04:23:41;90912.00;0.30;157.88;19807.00;0.07;34.94;;;;;20.50;1.00;;;;;;2271938;61;1094;-85
2022/07/06 04:26:08;18484.00;0.06;32.64;0.00;0.00;0.62;;;;;20.70;1.00;;;;;;2272057;61;1114;-86
2022/07/06 04:28:35;0.00;0.00;0.62;0.00;0.00;0.62;;;;;20.90;1.00;;;;;;2272087;61;1138;-86
2022/07/06 04:31:04;14338.00;0.05;25.46;0.00;0.00;0.62;;;;;21.00;1.00;;;;;;2272108;61;1341;-86
2022/07/06 04:33:30;16185.00;0.05;28.66;0.00;0.00;0.62;;;;;21.30;1.00;;;;;;2271930;61;1071;-86
2022/07/06 04:35:57;0.00;0.00;0.62;0.00;0.00;0.62;;;;;21.10;1.00;;;;;;2272325;61;1074;-85
2022/07/06 04:38:24;134815.00;0.45;233.63;0.00;0.00;0.62;;;;;21.60;1.00;;;;;;2272209;61;2005;-86
2022/07/06 04:40:51;88938.00;0.30;154.47;0.00;0.00;0.62;;;;;21.60;1.00;;;;;;2272117;61;1306;-86
2022/07/06 04:43:18;314520.00;1.05;542.88;35700.00;0.12;62.45;;;;;21.50;1.00;;;;;;2272305;61;1015;-86
2022/07/06 04:45:45;0.00;0.00;0.62;0.00;0.00;0.62;;;;;21.50;1.00;;;;;;2272220;61;1144;-86
2022/07/06 04:48:13;0.00;0.00;0.62;0.00;0.00;0.62;;;;;21.50;1.00;;;;;;2272371;61;1055;-83
2022/07/06 04:50:40;0.00;0.00;0.62;0.00;0.00;0.62;;;;;21.30;1.00;;;;;;2272440;61;1390;-84
2022/07/06 04:53:07;0.00;0.00;0.62;0.00;0.00;0.62;;;;;21.40;1.00;;;;;;2272474;61;1060;-83
2022/07/06 04:55:34;62893.00;0.21;109.48;0.00;0.00;0.62;;;;;21.30;1.00;;;;;;2272423;61;1248;-85
2022/07/06 04:58:01;132274.00;0.44;229.25;31347.00;0.10;54.91;;;;;21.50;1.00;;;;;;2271998;61;2004;-86
2022/07/06 05:00:28;0.00;0.00;0.62;0.00;0.00;0.62;;;;;21.90;1.00;;;;;;2271881;61;1298;-87
2022/07/06 05:02:55;0.00;0.00;0.62;0.00;0.00;0.62;;;;;22.00;1.00;;;;;;2272347;61;1748;-84
2022/07/06 05:05:23;88509.00;0.30;153.73;22180.00;0.07;39.05;;;;;22.20;1.00;;;;;;2272334;61;2238;-85
2022/07/06 05:07:50;14411.00;0.05;25.59;0.00;0.00;0.62;;;;;22.50;1.00;;;;;;2272399;61;1098;-82
2022/07/06 05:10:17;85286.00;0.28;148.17;0.00;0.00;0.62;;;;;22.60;1.00;;;;;;2272358;61;1324;-84
2022/07/06 05:12:44;124259.00;0.41;215.43;19285.00;0.06;34.03;;;;;22.90;1.00;;;;;;2271714;61;1145;-86
2022/07/06 05:15:23;141352.00;0.47;244.90;0.00;0.00;0.62;;;;;23.10;1.00;;;;;;2272266;61;1281;-86
2022/07/06 05:17:52;263295.00;0.88;454.81;0.00;0.00;0.62;;;;;23.00;1.00;;;;;;2272149;61;1992;-85
2022/07/06 05:20:22;146044.00;0.49;252.99;0.00;0.00;0.62;;;;;23.00;1.00;;;;;;2272190;61;1408;-85
2022/07/06 05:22:50;103022.00;0.34;178.79;0.00;0.00;0.62;;;;;23.10;1.00;;;;;;2272075;61;1260;-86
2022/07/06 05:25:17;168802.00;0.56;292.20;0.00;0.00;0.62;;;;;23.30;1.00;;;;;;2272136;61;1076;-85
2022/07/06 05:27:44;85328.00;0.28;148.24;0.00;0.00;0.62;;;;;23.40;1.00;;;;;;2272015;61;1143;-85
2022/07/06 05:30:12;103090.00;0.34;178.91;0.00;0.00;0.62;;;;;23.20;1.00;;;;;;2272004;61;1387;-84
2022/07/06 05:32:39;86492.00;0.29;150.25;0.00;0.00;0.62;;;;;23.40;1.00;;;;;;2272212;61;1122;-85
2022/07/06 05:35:07;100486.00;0.33;174.41;0.00;0.00;0.62;;;;;23.50;1.00;;;;;;2272121;61;1061;-85
2022/07/06 05:37:37;121550.00;0.41;210.76;0.00;0.00;0.62;;;;;23.60;1.00;;;;;;2272232;61;2004;-85
2022/07/06 05:40:06;337984.00;1.13;583.21;23483.00;0.08;41.30;;;;;23.50;1.00;;;;;;2271943;61;1936;-84
2022/07/06 05:42:33;294320.00;0.98;508.16;72196.00;0.24;125.55;;;;;23.70;1.00;;;;;;2272083;61;1094;-84
2022/07/06 05:45:00;0.00;0.00;0.62;0.00;0.00;0.62;;;;;23.70;1.00;;;;;;2272244;61;996;-84
2022/07/06 05:50:14;407640.00;1.36;702.94;71974.00;0.24;125.17;;;;;25.90;1.00;;;;;;2272134;61;1323;-85
2022/07/06 05:52:45;8647.00;0.03;15.61;0.00;0.00;0.62;;;;;27.50;1.00;;;;;;2272674;61;1525;-86
2022/07/06 05:55:14;13595.00;0.05;24.18;0.00;0.00;0.62;;;;;29.00;1.00;;;;;;2272800;61;1531;-85
2022/07/06 05:57:45;163078.00;0.54;282.34;0.00;0.00;0.62;;;;;30.20;1.00;;;;;;2272526;61;1934;-84
2022/07/06 06:00:15;222333.00;0.74;384.36;0.00;0.00;0.62;;;;;30.70;1.00;;;;;;2272605;61;1526;-86
2022/07/06 06:02:43;212458.00;0.71;367.37;49188.00;0.16;85.78;;;;;31.00;1.00;;;;;;2272229;61;1284;-87
2022/07/06 06:05:11;35566.00;0.12;62.22;0.00;0.00;0.62;;;;;32.30;1.00;;;;;;2272736;61;1151;-86
2022/07/06 06:07:39;24077.00;0.08;42.33;0.00;0.00;0.62;;;;;32.90;1.00;;;;;;2272490;61;1624;-84
2022/07/06 06:10:09;209726.00;0.70;362.66;0.00;0.00;0.62;;;;;32.70;1.00;;;;;;2272602;61;2222;-85
2022/07/06 06:12:38;14559.00;0.05;25.85;0.00;0.00;0.62;;;;;32.70;1.00;;;;;;2272511;61;1350;-85
2022/07/06 06:15:07;172689.00;0.58;298.90;64430.00;0.21;112.13;;;;;33.20;1.00;;;;;;2272249;61;1133;-85
2022/07/06 06:17:34;273549.00;0.91;472.45;102026.00;0.34;177.07;;;;;33.30;1.00;;;;;;2272154;61;2001;-84
2022/07/06 06:20:01;168767.00;0.56;292.14;62069.00;0.21;108.05;;;;;33.70;1.00;;;;;;2272128;61;1376;-85
2022/07/06 06:22:28;530305.00;1.77;914.02;232678.00;0.78;402.16;;;;;34.20;1.00;;;;;;2272337;61;1130;-86
2022/07/06 06:24:55;251689.00;0.84;434.86;78965.00;0.26;137.25;;;;;34.40;1.00;;;;;;2272217;61;1135;-85
2022/07/06 06:27:25;320562.00;1.07;553.26;59120.00;0.20;102.96;;;;;34.30;1.00;;;;;;2271693;61;1155;-84
2022/07/06 06:29:53;324340.00;1.08;559.76;59272.00;0.20;103.22;;;;;34.30;1.00;;;;;;2271764;61;1839;-83
2022/07/06 06:32:20;319768.00;1.07;551.90;64493.00;0.21;112.24;;;;;34.90;1.00;;;;;;2270826;61;1037;-85
2022/07/06 06:34:47;546813.00;1.82;942.47;98049.00;0.33;170.20;;;;;34.80;1.00;;;;;;2270576;61;1120;-84
2022/07/06 06:37:14;115569.00;0.39;200.44;0.00;0.00;0.62;;;;;35.20;1.00;;;;;;2270893;61;1185;-85
2022/07/06 06:39:40;157498.00;0.52;272.73;45516.00;0.15;79.43;;;;;35.20;1.00;;;;;;2270698;61;1940;-85
2022/07/06 06:42:08;132644.00;0.44;229.89;67818.00;0.23;117.99;;;;;35.40;1.00;;;;;;2270996;61;1079;-84
2022/07/06 06:44:35;0.00;0.00;0.62;0.00;0.00;0.62;;;;;35.20;1.00;;;;;;2270708;61;1126;-84
2022/07/06 06:47:03;0.00;0.00;0.62;0.00;0.00;0.62;;;;;35.20;1.00;;;;;;2272461;61;1107;-83
2022/07/06 06:49:30;413375.00;1.38;712.80;208486.00;0.69;360.53;;;;;35.00;1.00;;;;;;2271022;61;1372;-84
2022/07/06 06:51:57;52454.00;0.17;91.43;0.00;0.00;0.62;;;;;35.70;1.00;;;;;;2270913;61;1171;-85
2022/07/06 06:54:24;109040.00;0.36;189.17;0.00;0.00;0.62;;;;;36.20;1.00;;;;;;2270900;61;1194;-84
2022/07/06 06:56:51;128612.00;0.43;222.94;63905.00;0.21;111.23;;;;;35.70;1.00;;;;;;2270920;61;1116;-84
2022/07/06 06:59:18;29289.00;0.10;51.35;0.00;0.00;0.62;;;;;35.60;1.00;;;;;;2270808;61;1920;-85
2022/07/06 07:01:45;134061.00;0.45;232.33;31034.00;0.10;54.37;;;;;36.10;1.00;;;;;;2268910;61;1171;-84
2022/07/06 07:04:13;9240.00;0.03;16.63;0.00;0.00;0.62;;;;;36.00;1.00;;;;;;2268953;61;1171;-85
2022/07/06 07:06:40;0.00;0.00;0.62;0.00;0.00;0.62;;;;;36.40;1.00;;;;;;2269585;61;1178;-85
2022/07/06 07:09:07;153413.00;0.51;265.69;0.00;0.00;0.62;;;;;36.40;1.00;;;;;;2270299;61;1287;-85
2022/07/06 07:11:34;0.00;0.00;0.62;0.00;0.00;0.62;;;;;36.80;1.00;;;;;;2269783;61;1116;-85
2022/07/06 07:14:01;0.00;0.00;0.62;0.00;0.00;0.62;;;;;36.70;1.00;;;;;;2269862;61;1168;-84
2022/07/06 07:16:28;14780.00;0.05;26.23;0.00;0.00;0.62;;;;;35.90;1.00;;;;;;2272703;61;1167;-82
2022/07/06 07:18:55;0.00;0.00;0.62;0.00;0.00;0.62;;;;;35.80;1.00;;;;;;2272645;61;1994;-84
2022/07/06 07:21:24;150258.00;0.50;260.25;11082.00;0.04;19.82;;;;;35.90;1.00;;;;;;2271840;61;1169;-84
2022/07/06 07:23:51;57121.00;0.19;99.50;0.00;0.00;0.62;;;;;35.40;1.00;;;;;;2272588;61;1171;-85
2022/07/06 07:26:18;45874.00;0.15;80.05;0.00;0.00;0.62;;;;;35.90;1.00;;;;;;2271459;61;1054;-84
2022/07/06 07:28:44;224282.00;0.75;387.71;0.00;0.00;0.62;;;;;35.80;1.00;;;;;;2272728;61;1103;-84
2022/07/06 07:31:11;0.00;0.00;0.62;0.00;0.00;0.62;;;;;35.80;1.00;;;;;;2272362;61;1392;-85
2022/07/06 07:33:39;0.00;0.00;0.62;0.00;0.00;0.62;;;;;35.80;1.00;;;;;;2268764;61;1102;-84
2022/07/06 07:36:06;0.00;0.00;0.62;0.00;0.00;0.62;;;;;36.10;1.00;;;;;;2270158;61;1178;-83
2022/07/06 07:38:34;167412.00;0.56;289.81;28031.00;0.09;49.17;;;;;35.90;1.00;;;;;;2269140;61;2017;-85
2022/07/06 07:41:01;45903.00;0.15;80.10;0.00;0.00;0.62;;;;;36.40;1.00;;;;;;2268275;61;1302;-84
2022/07/06 07:43:28;194615.00;0.65;336.65;20072.00;0.07;35.39;;;;;36.60;1.00;;;;;;2268799;61;1145;-85
2022/07/06 07:45:55;149245.00;0.50;258.51;0.00;0.00;0.62;;;;;36.30;1.00;;;;;;2269805;61;1151;-84
2022/07/06 07:48:22;75461.00;0.25;131.20;0.00;0.00;0.62;;;;;36.60;1.00;;;;;;2271330;61;1155;-87
2022/07/06 07:50:49;83239.00;0.28;144.63;0.00;0.00;0.62;;;;;36.20;1.00;;;;;;2272206;61;1380;-86
2022/07/06 07:53:16;393933.00;1.31;679.38;109463.00;0.36;189.90;;;;;35.60;1.00;;;;;;2272146;61;1167;-85
2022/07/06 07:55:44;277605.00;0.93;479.42;44250.00;0.15;77.24;;;;;35.10;1.00;;;;;;2272192;61;1229;-85
2022/07/06 07:58:11;178093.00;0.59;308.21;0.00;0.00;0.62;;;;;34.90;1.00;;;;;;2272085;61;2012;-84
2022/07/06 08:00:38;137296.00;0.46;237.91;39142.00;0.13;68.40;;;;;34.80;1.00;;;;;;2271971;61;1339;-85
2022/07/06 08:03:05;117213200.00;390.71;65231336.00;14476.00;0.05;25.70;;;;;34.50;1.00;;;;;;2272445;61;989;-85
2022/07/06 08:05:32;196366.00;0.65;339.67;0.00;0.00;0.62;;;;;33.10;1.00;;;;;;2272208;61;1507;-86
2022/07/06 08:07:59;116259.00;0.39;201.63;0.00;0.00;0.62;;;;;33.50;1.00;;;;;;2272452;61;1189;-87
2022/07/06 08:10:26;160033.00;0.53;277.10;0.00;0.00;0.62;;;;;33.80;1.00;;;;;;2272336;61;1292;-85
2022/07/06 08:12:55;0.00;0.00;0.62;0.00;0.00;0.62;;;;;33.90;1.00;;;;;;2272294;61;1128;-85
2022/07/06 08:15:22;164509.00;0.55;284.81;0.00;0.00;0.62;;;;;34.90;1.00;;;;;;2271371;61;1155;-84
2022/07/06 08:17:49;0.00;0.00;0.62;0.00;0.00;0.62;;;;;35.00;1.00;;;;;;2271917;61;1051;-85
2022/07/06 08:20:16;176703.00;0.59;305.81;46841.00;0.16;81.72;;;;;34.80;1.00;;;;;;2271953;61;2032;-86
2022/07/06 08:22:43;104133.00;0.35;180.71;0.00;0.00;0.62;;;;;34.40;1.00;;;;;;2272292;61;988;-86
2022/07/06 08:25:11;219948.00;0.73;380.25;0.00;0.00;0.62;;;;;34.10;1.00;;;;;;2272235;61;1576;-85
2022/07/06 08:27:38;342815.00;1.14;591.51;10649.00;0.04;19.07;;;;;33.70;1.00;;;;;;2271087;61;1586;-86
2022/07/06 08:30:08;0.00;0.00;0.62;0.00;0.00;0.62;;;;;33.90;1.00;;;;;;2271735;61;1395;-86
2022/07/06 08:32:38;0.00;0.00;0.62;0.00;0.00;0.62;;;;;33.30;1.00;;;;;;2272239;61;1162;-85
2022/07/06 08:35:05;147246.00;0.49;255.06;0.00;0.00;0.62;;;;;33.40;1.00;;;;;;2272378;61;1079;-86
2022/07/06 08:37:33;140160.00;0.47;242.85;0.00;0.00;0.62;;;;;34.30;1.00;;;;;;2272397;61;1047;-86
2022/07/06 08:40:00;317387.00;1.06;547.81;57114.00;0.19;99.49;;;;;34.70;1.00;;;;;;2272233;61;1960;-85
2022/07/06 08:42:31;148243.00;0.49;256.78;0.00;0.00;0.62;;;;;34.90;1.00;;;;;;2271927;61;1026;-84
2022/07/06 08:45:01;42397.00;0.14;74.04;0.00;0.00;0.62;;;;;34.60;1.00;;;;;;2271814;61;1067;-85
2022/07/06 08:47:30;132757.00;0.44;230.08;0.00;0.00;0.62;;;;;35.30;1.00;;;;;;2271602;61;895;-87
2022/07/06 08:49:57;54150.00;0.18;94.36;0.00;0.00;0.62;;;;;34.60;1.00;;;;;;2272124;61;1371;-86
2022/07/06 08:52:25;128069.00;0.43;222.00;0.00;0.00;0.62;;;;;33.90;1.00;;;;;;2272256;61;1037;-85
2022/07/06 08:54:52;216225.00;0.72;373.85;0.00;0.00;0.62;;;;;34.10;1.00;;;;;;2271885;61;1292;-85
2022/07/06 08:57:20;38713.00;0.13;67.66;0.00;0.00;0.62;;;;;35.10;1.00;;;;;;2270554;61;1107;-83
2022/07/06 08:59:47;0.00;0.00;0.62;0.00;0.00;0.62;;;;;34.10;1.00;;;;;;2270378;61;2000;-85
2022/07/06 09:02:14;0.00;0.00;0.62;0.00;0.00;0.62;;;;;33.50;1.00;;;;;;2270891;61;1088;-85
2022/07/06 09:04:44;53133.00;0.18;92.60;0.00;0.00;0.62;;;;;33.20;1.00;;;;;;2271854;61;1162;-83
2022/07/06 09:07:13;80181.00;0.27;139.35;0.00;0.00;0.62;;;;;33.80;1.00;;;;;;2272051;61;1044;-85
2022/07/06 09:09:42;59462.00;0.20;103.55;0.00;0.00;0.62;;;;;33.80;1.00;;;;;;2271977;61;1313;-85
2022/07/06 09:12:13;5840.00;0.02;10.74;0.00;0.00;0.62;;;;;33.60;1.00;;;;;;2271964;61;1125;-85
2022/07/06 09:14:39;0.00;0.00;0.62;0.00;0.00;0.62;;;;;34.00;1.00;;;;;;2272168;61;1072;-85
2022/07/06 09:17:07;0.00;0.00;0.62;0.00;0.00;0.62;;;;;33.00;1.00;;;;;;2271643;61;916;-86
2022/07/06 09:19:36;0.00;0.00;0.62;0.00;0.00;0.62;;;;;32.90;1.00;;;;;;2271278;61;1994;-85
2022/07/06 09:22:05;97207.00;0.32;168.75;0.00;0.00;0.62;;;;;32.30;1.00;;;;;;2271658;61;1104;-87
2022/07/06 09:24:32;22686.00;0.08;39.92;0.00;0.00;0.62;;;;;31.50;1.00;;;;;;2271686;61;1127;-85
2022/07/06 09:27:00;62232.00;0.21;108.34;0.00;0.00;0.62;;;;;31.40;1.00;;;;;;2272684;61;1125;-85
2022/07/06 09:29:29;152316.00;0.51;263.80;0.00;0.00;0.62;;;;;31.40;1.00;;;;;;2272619;61;1594;-85
2022/07/06 09:31:59;0.00;0.00;0.62;0.00;0.00;0.62;;;;;31.30;1.00;;;;;;2273145;61;1080;-85
2022/07/06 09:34:41;208928.00;0.70;361.29;71952.00;0.24;125.13;;;;;31.30;1.00;;;;;;2273100;61;1122;-85
2022/07/06 09:37:10;280065.00;0.93;483.65;40941.00;0.14;71.52;;;;;30.80;1.00;;;;;;2272804;61;2209;-85
2022/07/06 09:39:36;56976.00;0.19;99.25;0.00;0.00;0.62;;;;;30.70;1.00;;;;;;2272992;61;1917;-86
2022/07/06 09:42:06;203267.00;0.68;351.55;0.00;0.00;0.62;;;;;30.70;1.00;;;;;;2272906;61;1099;-85
2022/07/06 09:44:36;63546.00;0.21;110.61;0.00;0.00;0.62;;;;;30.50;1.00;;;;;;2273024;61;1098;-84
2022/07/06 09:47:05;71764.00;0.24;124.81;0.00;0.00;0.62;;;;;31.10;1.00;;;;;;2273042;61;1043;-85
2022/07/06 09:49:33;269108.00;0.90;464.81;0.00;0.00;0.62;;;;;30.60;1.00;;;;;;2273005;61;1399;-84
2022/07/06 09:52:01;148024.00;0.49;256.40;0.00;0.00;0.62;;;;;30.60;1.00;;;;;;2272890;61;1074;-85
2022/07/06 09:54:30;0.00;0.00;0.62;0.00;0.00;0.62;;;;;30.80;1.00;;;;;;2272284;61;1076;-84
2022/07/06 09:56:58;0.00;0.00;0.62;0.00;0.00;0.62;;;;;30.30;1.00;;;;;;2272749;61;1074;-84
2022/07/06 09:59:26;71841.00;0.24;124.94;0.00;0.00;0.62;;;;;30.40;1.00;;;;;;2272514;61;1917;-86
2022/07/06 10:01:56;190309.00;0.63;329.24;0.00;0.00;0.62;;;;;31.00;1.00;;;;;;2272891;61;1062;-84
2022/07/06 10:04:24;128958.00;0.43;223.53;0.00;0.00;0.62;;;;;30.90;1.00;;;;;;2272600;61;1062;-85
2022/07/06 10:06:52;0.00;0.00;0.62;0.00;0.00;0.62;;;;;31.10;1.00;;;;;;2272642;61;1143;-86
2022/07/06 10:09:20;42783.00;0.14;74.70;0.00;0.00;0.62;;;;;31.40;1.00;;;;;;2272510;61;1278;-87
2022/07/06 10:11:52;5026.00;0.02;9.33;0.00;0.00;0.62;;;;;31.30;1.00;;;;;;2272609;61;1090;-84